BENNETT weather

Bennetts Field
Worden, Arkansas, United States

Public forecast

Using degrees Fahrenheit for public forecast. Weather courtesy of forecast.io.

METAR (pilot weather report)

Closest report is Searcy Municipal Airport, 13.0 nm (24.1 km) WSW. Retrieved 2019/07/23 15:56 UTC (51 minutes ago):

KSRC 231556Z AUTO 02013G21KT 10SM CLR 26/16 A3014 RMK AO2 SLP207 T02560161

TAF (pilot weather forecast)

Closest forecast is Little Rock Air Force Base, 39.2 nm (72.5 km) WSW. Retrieved 2019/07/23 15:54 UTC (53 minutes ago):

TAF TAF KLRF 231500Z 2315/2421 04010G15KT 9999 SKC QNH3006INS BECMG 2400/2401 04006KT 9999 SKC QNH3006INS BECMG 2414/2415 05010G15KT 9999 SKC QNH3008INS TX29/2321Z TN18/2412Z